Time;durP1;ratioP1;P1;durP2;ratioP2;P2;SDS_P1;SDS_P2;PMS_P1;PMS_P2;Temp;Humidity;BMP_temperature;BMP_pressure;BME280_temperature;BME280_humidity;BME280_pressure;Samples;Min_cycle;Max_cycle;Signal;HPM_P1;HPM_P2
2024/04/08 00:01:01;;;;;;;4.30;3.90;;;;;;;;;;5022680;28;20205;-78
2024/04/08 00:03:27;;;;;;;4.00;3.70;;;;;;;;;;5043214;28;20587;-78
2024/04/08 00:05:54;;;;;;;4.10;3.70;;;;;;;;;;5053079;28;20211;-78
2024/04/08 00:08:20;;;;;;;5.57;4.00;;;;;;;;;;5053203;28;20197;-78
2024/04/08 00:10:46;;;;;;;5.07;3.60;;;;;;;;;;5053083;28;20238;-78
2024/04/08 00:13:13;;;;;;;3.90;3.53;;;;;;;;;;5052956;28;20184;-79
2024/04/08 00:15:40;;;;;;;5.07;4.00;;;;;;;;;;5053227;28;20177;-78
2024/04/08 00:18:05;;;;;;;4.23;3.87;;;;;;;;;;5053153;28;20566;-78
2024/04/08 00:20:32;;;;;;;3.97;3.67;;;;;;;;;;5053001;28;20571;-78
2024/04/08 00:22:58;;;;;;;5.53;3.83;;;;;;;;;;5052846;28;20695;-78
2024/04/08 00:25:24;;;;;;;4.27;3.50;;;;;;;;;;5052831;28;20208;-78
2024/04/08 00:27:50;;;;;;;4.60;4.17;;;;;;;;;;5047334;28;20229;-78
2024/04/08 00:30:16;;;;;;;4.20;3.80;;;;;;;;;;5031851;28;20196;-78
2024/04/08 00:32:42;;;;;;;4.27;3.53;;;;;;;;;;5035999;28;20274;-78
2024/04/08 00:35:08;;;;;;;4.13;3.73;;;;;;;;;;5052079;28;20211;-78
2024/04/08 00:37:35;;;;;;;4.00;3.60;;;;;;;;;;5032944;28;20291;-78
2024/04/08 00:40:01;;;;;;;4.30;3.90;;;;;;;;;;5039116;28;20196;-78
2024/04/08 00:42:28;;;;;;;4.50;4.10;;;;;;;;;;5052161;28;20188;-78
2024/04/08 00:44:54;;;;;;;4.20;3.80;;;;;;;;;;5050823;28;20215;-79
2024/04/08 00:47:20;;;;;;;5.77;4.30;;;;;;;;;;5041030;28;20274;-78
2024/04/08 00:49:46;;;;;;;4.00;3.70;;;;;;;;;;5039235;28;20200;-78
2024/04/08 00:52:13;;;;;;;4.20;3.80;;;;;;;;;;5046410;28;20756;-78
2024/04/08 00:54:40;;;;;;;4.10;3.80;;;;;;;;;;5035053;28;20363;-78
2024/04/08 00:57:07;;;;;;;5.47;4.13;;;;;;;;;;5049412;28;20203;-77
2024/04/08 00:59:33;;;;;;;4.30;3.90;;;;;;;;;;5031888;28;20194;-78
2024/04/08 01:02:04;;;;;;;4.17;3.87;;;;;;;;;;5031793;28;20197;-78
2024/04/08 01:04:32;;;;;;;4.67;4.20;;;;;;;;;;5031767;28;20210;-77
2024/04/08 01:06:58;;;;;;;4.53;4.13;;;;;;;;;;5031735;28;20239;-78
2024/04/08 01:09:24;;;;;;;4.00;3.70;;;;;;;;;;5015395;28;20224;-78
2024/04/08 01:11:51;;;;;;;3.83;3.50;;;;;;;;;;5031985;28;20188;-78
2024/04/08 01:14:17;;;;;;;4.23;3.83;;;;;;;;;;5031363;28;20186;-77
2024/04/08 01:16:44;;;;;;;4.27;3.83;;;;;;;;;;5015356;28;20190;-77
2024/04/08 01:19:17;;;;;;;6.27;4.00;;;;;;;;;;5031581;28;20197;-77
2024/04/08 01:21:44;;;;;;;6.23;4.30;;;;;;;;;;5031657;28;20186;-77
2024/04/08 01:24:11;;;;;;;3.80;3.50;;;;;;;;;;5041492;28;20200;-78
2024/04/08 01:26:38;;;;;;;4.40;4.07;;;;;;;;;;5029032;28;20362;-77
2024/04/08 01:29:04;;;;;;;5.53;4.07;;;;;;;;;;5031628;28;20561;-77
2024/04/08 01:31:30;;;;;;;4.67;3.90;;;;;;;;;;5031439;28;20191;-77
2024/04/08 01:33:55;;;;;;;4.10;3.67;;;;;;;;;;5031478;28;20273;-77
2024/04/08 01:36:22;;;;;;;3.87;3.03;;;;;;;;;;5031403;28;20188;-79
2024/04/08 01:38:48;;;;;;;4.77;3.20;;;;;;;;;;5031520;28;20225;-78
2024/04/08 01:41:14;;;;;;;3.90;3.17;;;;;;;;;;5031328;28;20193;-78
2024/04/08 01:43:40;;;;;;;3.00;2.70;;;;;;;;;;5031136;28;20692;-77
2024/04/08 01:46:08;;;;;;;3.40;3.20;;;;;;;;;;5031358;28;20209;-77
2024/04/08 01:48:33;;;;;;;3.60;3.30;;;;;;;;;;5031435;28;20228;-77
2024/04/08 01:50:59;;;;;;;4.30;3.70;;;;;;;;;;5031287;28;20190;-79
2024/04/08 01:53:25;;;;;;;4.63;4.23;;;;;;;;;;5014885;28;20186;-77
2024/04/08 01:55:52;;;;;;;4.30;4.00;;;;;;;;;;5031456;28;20200;-78
2024/04/08 01:58:18;;;;;;;4.63;4.13;;;;;;;;;;5031330;28;20192;-78
2024/04/08 02:00:44;;;;;;;4.60;4.13;;;;;;;;;;5040074;28;20541;-77
2024/04/08 02:03:11;;;;;;;4.63;4.23;;;;;;;;;;5046859;28;20189;-78
2024/04/08 02:05:38;;;;;;;4.93;4.53;;;;;;;;;;5035315;28;20239;-78
2024/04/08 02:08:04;;;;;;;4.50;4.10;;;;;;;;;;5031319;28;20207;-78
2024/04/08 02:10:31;;;;;;;4.90;4.13;;;;;;;;;;5042457;28;20188;-78
2024/04/08 02:12:57;;;;;;;4.70;4.37;;;;;;;;;;5048869;28;20203;-78
2024/04/08 02:15:23;;;;;;;4.30;3.90;;;;;;;;;;5039732;28;20200;-77
2024/04/08 02:17:49;;;;;;;4.33;3.93;;;;;;;;;;5050649;28;20204;-78
2024/04/08 02:20:15;;;;;;;4.60;3.97;;;;;;;;;;5050797;28;20186;-77
2024/04/08 02:22:41;;;;;;;3.57;3.27;;;;;;;;;;5053149;28;20271;-77
2024/04/08 02:25:08;;;;;;;4.90;3.50;;;;;;;;;;5054664;28;20632;-78
2024/04/08 02:27:34;;;;;;;3.50;2.97;;;;;;;;;;5041702;28;20259;-78
2024/04/08 02:30:01;;;;;;;3.17;2.87;;;;;;;;;;5034501;28;20669;-77
2024/04/08 02:32:27;;;;;;;2.90;2.70;;;;;;;;;;5034754;28;20537;-78
2024/04/08 02:34:53;;;;;;;3.10;2.80;;;;;;;;;;5034565;28;20192;-78
2024/04/08 02:37:19;;;;;;;4.10;2.60;;;;;;;;;;5034725;28;20192;-78
2024/04/08 02:39:45;;;;;;;2.73;2.50;;;;;;;;;;5034505;28;20321;-79
2024/04/08 02:42:12;;;;;;;3.30;3.00;;;;;;;;;;5034516;28;20554;-79
2024/04/08 02:44:39;;;;;;;2.60;2.40;;;;;;;;;;5034557;28;20585;-78
2024/04/08 02:47:05;;;;;;;2.87;2.67;;;;;;;;;;5034411;28;20262;-78
2024/04/08 02:49:32;;;;;;;2.83;2.30;;;;;;;;;;5034503;28;20190;-78
2024/04/08 02:51:58;;;;;;;3.47;2.40;;;;;;;;;;5034474;28;20247;-78
2024/04/08 02:54:25;;;;;;;2.73;2.37;;;;;;;;;;5034726;28;20194;-78
2024/04/08 02:56:51;;;;;;;3.00;2.30;;;;;;;;;;5034550;28;20269;-78
2024/04/08 02:59:17;;;;;;;2.33;2.13;;;;;;;;;;5034293;28;20187;-78
2024/04/08 03:01:43;;;;;;;3.27;2.53;;;;;;;;;;5034281;28;20186;-78
2024/04/08 03:04:09;;;;;;;3.80;2.43;;;;;;;;;;5034059;28;20193;-79
2024/04/08 03:06:36;;;;;;;3.53;2.50;;;;;;;;;;5033843;28;20214;-77
2024/04/08 03:09:04;;;;;;;3.40;2.63;;;;;;;;;;5034037;28;20189;-78
2024/04/08 03:11:30;;;;;;;2.93;2.70;;;;;;;;;;5017568;28;20187;-77
2024/04/08 03:13:57;;;;;;;3.47;2.57;;;;;;;;;;5034012;28;20266;-78
2024/04/08 03:16:23;;;;;;;2.43;2.23;;;;;;;;;;5033927;28;20270;-79
2024/04/08 03:18:50;;;;;;;3.40;2.43;;;;;;;;;;5033912;28;20183;-80
2024/04/08 03:21:16;;;;;;;3.07;2.57;;;;;;;;;;5033732;28;20178;-78
2024/04/08 03:23:42;;;;;;;4.13;2.33;;;;;;;;;;5033611;28;20617;-77
2024/04/08 03:26:09;;;;;;;2.80;2.60;;;;;;;;;;5033593;28;20225;-78
2024/04/08 03:28:35;;;;;;;3.37;2.30;;;;;;;;;;5033249;28;20237;-78
2024/04/08 03:31:02;;;;;;;2.90;2.40;;;;;;;;;;5033617;28;20194;-78
2024/04/08 03:33:28;;;;;;;2.80;2.50;;;;;;;;;;5034129;28;20301;-79
2024/04/08 03:35:54;;;;;;;2.60;2.40;;;;;;;;;;5016877;28;20632;-78
2024/04/08 03:38:21;;;;;;;3.53;2.43;;;;;;;;;;5033492;28;20270;-78
2024/04/08 03:40:57;;;;;;;3.20;2.70;;;;;;;;;;5033473;28;20274;-78
2024/04/08 03:43:23;;;;;;;2.83;2.37;;;;;;;;;;5033384;28;20190;-78
2024/04/08 03:45:50;;;;;;;4.47;2.60;;;;;;;;;;5033228;28;20233;-78
2024/04/08 03:48:17;;;;;;;5.33;2.70;;;;;;;;;;5033185;28;20235;-78
2024/04/08 03:50:44;;;;;;;3.20;2.50;;;;;;;;;;5033151;28;20190;-78
2024/04/08 03:53:11;;;;;;;2.80;2.60;;;;;;;;;;5033085;28;20190;-78
2024/04/08 03:55:37;;;;;;;3.37;2.30;;;;;;;;;;5033546;28;20600;-79
2024/04/08 03:58:04;;;;;;;2.53;2.33;;;;;;;;;;5033239;28;20182;-78
2024/04/08 04:00:30;;;;;;;2.00;1.80;;;;;;;;;;5033033;28;20198;-78
2024/04/08 04:02:56;;;;;;;2.47;2.27;;;;;;;;;;5033300;28;20244;-79
2024/04/08 04:05:22;;;;;;;2.80;2.43;;;;;;;;;;5016695;28;20210;-78
2024/04/08 04:07:49;;;;;;;3.40;2.30;;;;;;;;;;5033171;28;20194;-78
2024/04/08 04:10:17;;;;;;;2.50;2.30;;;;;;;;;;5033105;28;20190;-78
2024/04/08 04:12:43;;;;;;;2.63;2.40;;;;;;;;;;5032892;28;20216;-78
2024/04/08 04:15:11;;;;;;;3.30;2.30;;;;;;;;;;5033559;28;20190;-78
2024/04/08 04:17:37;;;;;;;2.67;2.47;;;;;;;;;;5033329;28;20289;-78
2024/04/08 04:20:06;;;;;;;2.70;2.40;;;;;;;;;;5016573;28;20273;-78
2024/04/08 04:22:32;;;;;;;3.70;2.67;;;;;;;;;;5032829;28;20187;-78
2024/04/08 04:24:59;;;;;;;3.17;2.47;;;;;;;;;;5033123;28;20691;-78
2024/04/08 04:27:25;;;;;;;2.47;2.27;;;;;;;;;;5032615;28;20305;-78
2024/04/08 04:29:51;;;;;;;2.40;2.17;;;;;;;;;;5032748;28;20221;-77
2024/04/08 04:32:17;;;;;;;4.67;2.50;;;;;;;;;;5032592;28;20190;-78
2024/04/08 04:34:43;;;;;;;2.80;2.50;;;;;;;;;;5032444;28;20236;-77
2024/04/08 04:37:10;;;;;;;2.70;2.50;;;;;;;;;;5032448;28;20547;-78
2024/04/08 04:39:36;;;;;;;2.60;2.40;;;;;;;;;;5032626;28;20193;-78
2024/04/08 04:42:02;;;;;;;3.27;2.20;;;;;;;;;;5032508;28;20187;-79
2024/04/08 04:44:29;;;;;;;2.70;2.50;;;;;;;;;;5031956;28;20190;-78
2024/04/08 04:46:54;;;;;;;2.30;2.10;;;;;;;;;;5032293;28;20201;-77
2024/04/08 04:49:20;;;;;;;2.40;2.20;;;;;;;;;;5032339;28;20248;-77
2024/04/08 04:51:46;;;;;;;3.03;2.30;;;;;;;;;;5032059;28;20680;-78
2024/04/08 04:54:12;;;;;;;2.33;2.13;;;;;;;;;;5031545;28;20726;-78
2024/04/08 04:56:39;;;;;;;2.90;2.53;;;;;;;;;;5032818;28;20680;-77
2024/04/08 04:59:05;;;;;;;3.47;2.30;;;;;;;;;;5037885;28;20277;-78
2024/04/08 05:01:31;;;;;;;3.00;2.20;;;;;;;;;;5047132;28;20237;-80
2024/04/08 05:03:57;;;;;;;2.77;2.40;;;;;;;;;;5017979;28;20201;-78
2024/04/08 05:06:23;;;;;;;3.40;2.27;;;;;;;;;;5050362;28;20308;-78
2024/04/08 05:08:50;;;;;;;2.60;2.40;;;;;;;;;;5042105;28;20289;-79
2024/04/08 05:11:16;;;;;;;2.40;2.20;;;;;;;;;;5049983;28;20213;-77
2024/04/08 05:13:42;;;;;;;3.20;2.47;;;;;;;;;;5033468;28;20225;-79
2024/04/08 05:16:11;;;;;;;2.53;2.13;;;;;;;;;;5030191;28;20564;-79
2024/04/08 05:18:36;;;;;;;2.90;2.30;;;;;;;;;;5043945;28;20197;-78
2024/04/08 05:21:02;;;;;;;3.23;2.30;;;;;;;;;;5029911;28;20199;-79
2024/04/08 05:23:29;;;;;;;3.17;2.17;;;;;;;;;;5030055;28;20229;-78
2024/04/08 05:25:56;;;;;;;3.30;2.00;;;;;;;;;;5028588;28;20691;-77
2024/04/08 05:28:22;;;;;;;3.50;2.53;;;;;;;;;;5029760;28;20747;-81
2024/04/08 05:30:48;;;;;;;2.50;2.30;;;;;;;;;;5030894;28;20194;-78
2024/04/08 05:33:15;;;;;;;2.80;2.20;;;;;;;;;;5033367;28;20225;-78
2024/04/08 05:35:43;;;;;;;2.80;2.13;;;;;;;;;;5049612;28;20202;-85
2024/04/08 05:38:10;;;;;;;3.00;2.13;;;;;;;;;;5037879;28;20202;-78
2024/04/08 05:40:37;;;;;;;3.00;2.17;;;;;;;;;;5030060;28;20201;-78
2024/04/08 05:43:03;;;;;;;2.83;2.20;;;;;;;;;;5038257;28;20286;-77
2024/04/08 05:45:30;;;;;;;3.37;2.20;;;;;;;;;;5018394;28;20229;-78
2024/04/08 05:47:56;;;;;;;2.53;1.90;;;;;;;;;;5037185;28;20202;-77
2024/04/08 05:50:23;;;;;;;4.63;2.10;;;;;;;;;;5037911;28;20217;-80
2024/04/08 05:52:50;;;;;;;3.33;2.03;;;;;;;;;;5022064;28;20245;-81
2024/04/08 05:55:16;;;;;;;5.33;2.10;;;;;;;;;;5038421;28;20261;-81
2024/04/08 05:57:42;;;;;;;4.50;2.30;;;;;;;;;;5036822;28;20260;-81
2024/04/08 06:00:10;;;;;;;6.93;2.00;;;;;;;;;;5028759;28;20237;-82
2024/04/08 06:02:36;;;;;;;4.43;2.53;;;;;;;;;;5038880;28;20202;-80
2024/04/08 06:05:03;;;;;;;5.23;1.93;;;;;;;;;;5034742;28;20295;-83
2024/04/08 06:07:29;;;;;;;3.60;2.17;;;;;;;;;;5018452;28;20203;-83
2024/04/08 06:09:56;;;;;;;3.83;2.13;;;;;;;;;;5034618;28;20198;-83
2024/04/08 06:12:22;;;;;;;4.00;2.40;;;;;;;;;;5034584;28;20575;-83
2024/04/08 06:14:49;;;;;;;2.27;2.03;;;;;;;;;;5034553;28;20200;-83
2024/04/08 06:17:15;;;;;;;2.87;2.30;;;;;;;;;;5034331;28;20630;-83
2024/04/08 06:19:41;;;;;;;3.33;2.47;;;;;;;;;;5034509;28;20839;-82
2024/04/08 06:22:07;;;;;;;3.80;2.40;;;;;;;;;;5034264;28;20273;-82
2024/04/08 06:24:33;;;;;;;3.77;2.40;;;;;;;;;;5017869;28;20234;-82
2024/04/08 06:27:00;;;;;;;4.60;2.50;;;;;;;;;;5038419;28;20234;-81
2024/04/08 06:29:26;;;;;;;2.53;2.10;;;;;;;;;;5043497;28;20307;-82
2024/04/08 06:31:52;;;;;;;3.93;2.03;;;;;;;;;;5034089;28;20285;-79
2024/04/08 06:34:18;;;;;;;3.00;2.30;;;;;;;;;;5025456;28;20682;-81
2024/04/08 06:36:45;;;;;;;4.57;2.47;;;;;;;;;;5044051;28;20195;-81
2024/04/08 06:39:11;;;;;;;2.10;1.90;;;;;;;;;;5039769;28;20196;-81
2024/04/08 06:41:37;;;;;;;3.77;2.47;;;;;;;;;;5035787;28;20197;-84
2024/04/08 06:44:04;;;;;;;4.33;2.30;;;;;;;;;;5003453;28;20219;-84
2024/04/08 06:46:30;;;;;;;4.03;2.10;;;;;;;;;;5018261;28;20228;-84
2024/04/08 06:48:56;;;;;;;3.30;1.73;;;;;;;;;;5019126;28;20310;-83
2024/04/08 06:51:22;;;;;;;6.10;2.10;;;;;;;;;;5036291;28;20196;-82
2024/04/08 06:53:48;;;;;;;4.53;2.23;;;;;;;;;;5030923;28;20193;-82
2024/04/08 06:56:14;;;;;;;3.80;2.10;;;;;;;;;;5017915;28;20288;-81
2024/04/08 06:58:41;;;;;;;2.63;2.10;;;;;;;;;;5033512;28;20288;-82
2024/04/08 07:01:07;;;;;;;2.35;1.90;;;;;;;;;;5023704;28;20213;-82
2024/04/08 07:03:33;;;;;;;2.58;2.20;;;;;;;;;;5035718;28;20197;-81
2024/04/08 07:05:59;;;;;;;5.15;2.15;;;;;;;;;;5031455;28;20222;-82
2024/04/08 07:08:26;;;;;;;4.05;2.13;;;;;;;;;;5033336;28;20190;-82
2024/04/08 07:10:52;;;;;;;3.03;2.15;;;;;;;;;;5017289;28;20209;-82
2024/04/08 07:13:19;;;;;;;3.85;2.08;;;;;;;;;;5016821;28;20289;-81
2024/04/08 07:15:57;;;;;;;3.35;2.58;;;;;;;;;;5034772;28;20281;-83
2024/04/08 07:18:24;;;;;;;6.03;2.30;;;;;;;;;;5030530;28;20201;-83
2024/04/08 07:20:50;;;;;;;3.58;2.08;;;;;;;;;;5019492;28;20216;-83
2024/04/08 07:23:16;;;;;;;5.15;2.10;;;;;;;;;;5051043;28;20224;-82
2024/04/08 07:25:44;;;;;;;3.90;2.30;;;;;;;;;;5044916;28;20226;-83
2024/04/08 07:28:11;;;;;;;3.80;1.92;;;;;;;;;;5020131;28;20230;-83
2024/04/08 07:30:38;;;;;;;3.72;2.30;;;;;;;;;;5043016;28;20356;-82
2024/04/08 07:33:04;;;;;;;4.15;1.95;;;;;;;;;;5025865;28;20209;-82
2024/04/08 07:35:32;;;;;;;2.60;2.10;;;;;;;;;;5026662;28;20210;-83
2024/04/08 07:37:58;;;;;;;5.97;2.30;;;;;;;;;;5026826;28;20212;-82
2024/04/08 07:40:25;;;;;;;4.65;2.00;;;;;;;;;;5033652;28;20198;-82
2024/04/08 07:42:51;;;;;;;2.17;1.75;;;;;;;;;;5032696;28;20324;-82
2024/04/08 07:45:17;;;;;;;3.15;2.30;;;;;;;;;;5015779;28;20409;-82
2024/04/08 07:47:46;;;;;;;3.40;2.63;;;;;;;;;;5038574;28;20217;-82
2024/04/08 07:50:12;;;;;;;4.45;2.47;;;;;;;;;;5041512;28;20210;-83
2024/04/08 07:52:39;;;;;;;2.63;2.20;;;;;;;;;;5038534;28;20223;-82
2024/04/08 07:55:05;;;;;;;5.55;2.85;;;;;;;;;;5038623;28;20193;-82
2024/04/08 07:57:32;;;;;;;3.35;2.10;;;;;;;;;;5038682;28;20658;-82
2024/04/08 07:59:58;;;;;;;3.40;2.20;;;;;;;;;;5041722;28;20198;-82
2024/04/08 08:02:24;;;;;;;3.90;2.40;;;;;;;;;;5037481;28;20249;-82
2024/04/08 08:04:50;;;;;;;3.38;2.08;;;;;;;;;;5036525;28;20199;-82
2024/04/08 08:07:16;;;;;;;3.47;2.03;;;;;;;;;;5018961;28;20299;-82
2024/04/08 08:09:42;;;;;;;4.38;1.92;;;;;;;;;;5027041;28;20207;-81
2024/04/08 08:12:09;;;;;;;4.65;2.10;;;;;;;;;;5021273;28;20212;-82
2024/04/08 08:14:35;;;;;;;3.17;2.20;;;;;;;;;;5017549;28;20289;-82
2024/04/08 08:17:02;;;;;;;3.55;2.30;;;;;;;;;;5031410;28;20197;-82
2024/04/08 08:19:27;;;;;;;3.65;2.30;;;;;;;;;;5030834;28;20679;-81
2024/04/08 08:21:54;;;;;;;3.22;2.17;;;;;;;;;;5031299;28;20667;-82
2024/04/08 08:24:20;;;;;;;8.20;2.10;;;;;;;;;;5011314;28;20195;-81
2024/04/08 08:26:47;;;;;;;4.00;1.90;;;;;;;;;;5029996;28;20232;-81
2024/04/08 08:29:13;;;;;;;4.03;2.00;;;;;;;;;;5013759;28;20201;-81
2024/04/08 08:31:39;;;;;;;4.35;2.15;;;;;;;;;;5010991;28;20217;-81
2024/04/08 08:34:05;;;;;;;6.53;2.08;;;;;;;;;;5043325;28;20199;-80
2024/04/08 08:36:31;;;;;;;2.50;2.20;;;;;;;;;;5040587;28;20185;-81
2024/04/08 08:38:58;;;;;;;3.55;2.15;;;;;;;;;;5044329;28;20205;-80
2024/04/08 08:41:24;;;;;;;4.78;2.10;;;;;;;;;;5031466;28;20191;-80
2024/04/08 08:43:50;;;;;;;5.68;2.15;;;;;;;;;;5031433;28;20253;-80
2024/04/08 08:46:17;;;;;;;5.45;1.90;;;;;;;;;;5031331;28;20213;-81
2024/04/08 08:48:46;;;;;;;4.03;1.85;;;;;;;;;;5035322;28;20238;-81
2024/04/08 08:51:12;;;;;;;2.80;2.08;;;;;;;;;;5048334;28;20190;-81
2024/04/08 08:53:38;;;;;;;4.95;2.50;;;;;;;;;;5050629;28;20583;-80
2024/04/08 08:56:05;;;;;;;2.38;2.05;;;;;;;;;;5029768;28;20209;-81
2024/04/08 08:58:32;;;;;;;6.40;2.63;;;;;;;;;;5047634;28;20240;-81
2024/04/08 09:00:59;;;;;;;2.85;1.95;;;;;;;;;;5044903;28;20201;-81
2024/04/08 09:03:28;;;;;;;2.60;1.80;;;;;;;;;;5050533;28;20666;-80
2024/04/08 09:05:55;;;;;;;4.18;2.40;;;;;;;;;;5028292;28;20712;-80
2024/04/08 09:08:21;;;;;;;3.28;1.88;;;;;;;;;;5042432;28;20212;-80
2024/04/08 09:10:48;;;;;;;3.17;1.73;;;;;;;;;;5050435;28;20196;-80
2024/04/08 09:13:22;;;;;;;2.90;2.20;;;;;;;;;;5019431;28;20252;-79
2024/04/08 09:15:50;;;;;;;3.50;2.80;;;;;;;;;;5031190;28;20194;-79
2024/04/08 09:18:17;;;;;;;6.90;2.70;;;;;;;;;;5031025;28;20197;-79
2024/04/08 09:20:43;;;;;;;3.72;2.30;;;;;;;;;;5030789;28;20589;-79
2024/04/08 09:23:10;;;;;;;4.00;2.50;;;;;;;;;;5030841;28;20206;-79
2024/04/08 09:25:36;;;;;;;3.72;2.20;;;;;;;;;;5030551;28;20206;-80
2024/04/08 09:28:02;;;;;;;2.03;1.77;;;;;;;;;;5030740;28;20287;-80
2024/04/08 09:30:28;;;;;;;3.65;1.83;;;;;;;;;;5031130;28;20194;-80
2024/04/08 09:32:54;;;;;;;3.53;2.45;;;;;;;;;;5011744;28;20213;-79
2024/04/08 09:35:21;;;;;;;2.80;1.80;;;;;;;;;;5019742;28;20264;-79
2024/04/08 09:37:47;;;;;;;2.72;1.70;;;;;;;;;;5038359;28;20277;-80
2024/04/08 09:40:14;;;;;;;3.95;1.90;;;;;;;;;;5054257;28;20575;-80
2024/04/08 09:42:41;;;;;;;2.80;1.80;;;;;;;;;;5053858;28;20200;-80
2024/04/08 09:45:09;;;;;;;2.13;1.90;;;;;;;;;;5054190;28;20205;-80
2024/04/08 09:47:36;;;;;;;3.03;1.88;;;;;;;;;;5053893;28;20224;-79
2024/04/08 09:50:04;;;;;;;4.47;1.70;;;;;;;;;;5026284;28;20204;-80
2024/04/08 09:52:32;;;;;;;1.92;1.67;;;;;;;;;;5049389;28;20233;-83
2024/04/08 09:54:58;;;;;;;3.17;1.77;;;;;;;;;;5034057;28;20199;-82
2024/04/08 09:57:25;;;;;;;4.72;1.83;;;;;;;;;;5040297;28;20194;-82
2024/04/08 09:59:54;;;;;;;2.92;2.03;;;;;;;;;;5048645;28;20700;-79
2024/04/08 10:02:24;;;;;;;3.75;1.90;;;;;;;;;;5033208;28;20225;-79
2024/04/08 10:04:52;;;;;;;3.55;1.83;;;;;;;;;;5043417;28;20190;-78
2024/04/08 10:07:18;;;;;;;3.10;1.90;;;;;;;;;;5024665;28;20194;-79
2024/04/08 10:09:45;;;;;;;2.38;1.80;;;;;;;;;;5048200;28;20204;-80
2024/04/08 10:12:10;;;;;;;2.78;1.73;;;;;;;;;;5051814;28;20201;-85
2024/04/08 10:14:36;;;;;;;3.00;1.70;;;;;;;;;;5002507;28;20691;-82
2024/04/08 10:17:02;;;;;;;2.97;1.70;;;;;;;;;;5034287;28;20191;-83
2024/04/08 10:19:29;;;;;;;1.75;1.65;;;;;;;;;;5036212;28;20191;-85
2024/04/08 10:22:01;;;;;;;4.57;1.60;;;;;;;;;;5013214;28;20225;-80
2024/04/08 10:24:29;;;;;;;2.10;1.60;;;;;;;;;;5029777;28;20198;-85
2024/04/08 10:27:00;;;;;;;3.80;1.40;;;;;;;;;;5003695;28;20238;-81
2024/04/08 10:29:27;;;;;;;2.05;1.60;;;;;;;;;;5009443;28;20199;-81
2024/04/08 10:31:53;;;;;;;3.53;1.58;;;;;;;;;;5012288;28;20657;-82
2024/04/08 10:34:19;;;;;;;5.55;1.70;;;;;;;;;;5033965;28;20194;-81
2024/04/08 10:36:45;;;;;;;3.25;1.50;;;;;;;;;;5033785;28;20199;-82
2024/04/08 10:39:12;;;;;;;4.78;1.55;;;;;;;;;;5038961;28;20189;-81
2024/04/08 10:41:38;;;;;;;3.60;1.58;;;;;;;;;;5038610;28;20198;-82
2024/04/08 10:44:04;;;;;;;3.50;1.50;;;;;;;;;;5037834;28;20684;-82
2024/04/08 10:46:30;;;;;;;2.83;1.58;;;;;;;;;;5033512;28;20238;-82
2024/04/08 10:48:56;;;;;;;1.50;1.23;;;;;;;;;;5033291;28;20529;-81
2024/04/08 10:51:23;;;;;;;1.55;1.30;;;;;;;;;;5033329;28;20736;-82
2024/04/08 10:53:51;;;;;;;3.95;1.73;;;;;;;;;;5033506;28;20194;-82
2024/04/08 10:56:17;;;;;;;2.28;1.52;;;;;;;;;;5051939;28;20738;-82
2024/04/08 10:58:43;;;;;;;2.63;1.25;;;;;;;;;;5044861;28;20221;-83
2024/04/08 11:01:09;;;;;;;2.70;1.40;;;;;;;;;;5044260;28;20656;-82
2024/04/08 11:03:35;;;;;;;3.83;1.38;;;;;;;;;;5044038;28;20193;-82
2024/04/08 11:06:01;;;;;;;3.10;1.45;;;;;;;;;;5035061;28;20218;-84
2024/04/08 11:08:28;;;;;;;2.35;1.42;;;;;;;;;;5036466;28;20205;-82
2024/04/08 11:10:55;;;;;;;2.67;1.40;;;;;;;;;;5042377;28;20225;-82
2024/04/08 11:13:23;;;;;;;1.88;1.40;;;;;;;;;;5039650;28;20278;-83
2024/04/08 11:15:51;;;;;;;3.75;1.50;;;;;;;;;;5040851;28;20248;-81
2024/04/08 11:18:21;;;;;;;2.35;1.58;;;;;;;;;;5038438;28;20251;-82
2024/04/08 11:20:47;;;;;;;1.92;1.30;;;;;;;;;;5024543;28;20547;-82
2024/04/08 11:23:14;;;;;;;5.43;1.55;;;;;;;;;;5037041;28;20664;-84
2024/04/08 11:25:40;;;;;;;3.53;1.60;;;;;;;;;;5038712;28;20218;-83
2024/04/08 11:28:09;;;;;;;1.50;1.40;;;;;;;;;;5046247;28;20279;-83
2024/04/08 11:30:37;;;;;;;1.50;1.40;;;;;;;;;;5039389;28;20190;-83
2024/04/08 11:33:03;;;;;;;2.55;1.45;;;;;;;;;;5045821;28;20197;-84
2024/04/08 11:35:30;;;;;;;4.53;1.50;;;;;;;;;;5045677;28;20255;-84
2024/04/08 11:37:56;;;;;;;1.60;1.50;;;;;;;;;;5044617;28;20662;-81
2024/04/08 11:40:22;;;;;;;1.83;1.50;;;;;;;;;;5030095;28;20288;-81
2024/04/08 11:42:48;;;;;;;3.03;1.40;;;;;;;;;;5040938;28;20197;-82
2024/04/08 11:45:14;;;;;;;2.33;1.50;;;;;;;;;;5046489;28;20247;-81
2024/04/08 11:47:40;;;;;;;2.40;1.60;;;;;;;;;;5016889;28;20197;-81
2024/04/08 11:50:07;;;;;;;5.78;1.70;;;;;;;;;;5032416;28;20654;-83
2024/04/08 11:52:33;;;;;;;2.85;1.65;;;;;;;;;;5031943;28;20749;-81
2024/04/08 11:54:59;;;;;;;3.22;1.60;;;;;;;;;;5038401;28;20281;-81
2024/04/08 11:57:25;;;;;;;1.85;1.50;;;;;;;;;;5045476;28;20252;-82
2024/04/08 11:59:51;;;;;;;2.75;1.50;;;;;;;;;;5022600;28;20214;-82
2024/04/08 12:02:17;;;;;;;2.40;1.90;;;;;;;;;;5000302;28;20238;-82
2024/04/08 12:04:46;;;;;;;3.35;1.52;;;;;;;;;;5034896;28;20200;-81
2024/04/08 12:07:12;;;;;;;3.35;1.45;;;;;;;;;;5021683;28;20206;-82
2024/04/08 12:09:41;;;;;;;1.92;1.60;;;;;;;;;;5022113;28;20679;-81
2024/04/08 12:12:09;;;;;;;3.55;1.70;;;;;;;;;;5031950;28;20209;-81
2024/04/08 12:14:35;;;;;;;3.80;2.10;;;;;;;;;;5032915;28;20312;-81
2024/04/08 12:17:03;;;;;;;2.50;1.60;;;;;;;;;;5033688;28;20252;-81
2024/04/08 12:19:29;;;;;;;3.42;2.00;;;;;;;;;;5030779;28;20206;-81
2024/04/08 12:21:55;;;;;;;2.97;1.75;;;;;;;;;;5034812;28;20194;-82
2024/04/08 12:24:21;;;;;;;2.47;1.85;;;;;;;;;;5031854;28;20218;-80
2024/04/08 12:26:47;;;;;;;3.47;1.92;;;;;;;;;;5033493;28;20238;-81
2024/04/08 12:29:13;;;;;;;4.45;1.48;;;;;;;;;;5034030;28;20199;-81
2024/04/08 12:31:39;;;;;;;3.58;2.10;;;;;;;;;;5031171;28;20198;-81
2024/04/08 12:34:05;;;;;;;2.33;1.75;;;;;;;;;;5032697;28;20205;-82
2024/04/08 12:36:31;;;;;;;1.65;1.55;;;;;;;;;;5032577;28;20547;-82
2024/04/08 12:38:57;;;;;;;3.75;1.70;;;;;;;;;;5036491;28;20676;-82
2024/04/08 12:41:23;;;;;;;5.38;1.83;;;;;;;;;;5033345;28;20198;-82
2024/04/08 12:43:50;;;;;;;2.15;1.80;;;;;;;;;;5032491;28;20206;-81
2024/04/08 12:46:16;;;;;;;3.15;1.70;;;;;;;;;;5030844;28;20268;-82
2024/04/08 12:48:42;;;;;;;2.65;1.92;;;;;;;;;;5015625;28;20194;-81
2024/04/08 12:51:08;;;;;;;2.45;1.60;;;;;;;;;;5032670;28;20190;-81
2024/04/08 12:53:34;;;;;;;2.10;1.80;;;;;;;;;;5032117;28;20364;-83
2024/04/08 12:56:01;;;;;;;2.70;1.80;;;;;;;;;;5033208;28;20194;-80
2024/04/08 12:58:28;;;;;;;3.15;1.88;;;;;;;;;;5038967;28;20195;-82
2024/04/08 13:00:55;;;;;;;3.50;2.00;;;;;;;;;;5015178;28;20225;-81
2024/04/08 13:03:22;;;;;;;2.83;1.95;;;;;;;;;;5033447;28;20190;-81
2024/04/08 13:05:49;;;;;;;2.85;1.70;;;;;;;;;;5039921;28;20283;-82
2024/04/08 13:08:15;;;;;;;2.17;1.90;;;;;;;;;;5039646;28;20588;-81
2024/04/08 13:10:42;;;;;;;3.58;1.90;;;;;;;;;;5041730;28;20247;-80
2024/04/08 13:13:08;;;;;;;3.38;1.70;;;;;;;;;;5038628;28;20198;-80
2024/04/08 13:15:33;;;;;;;2.70;1.80;;;;;;;;;;5021862;28;20619;-81
2024/04/08 13:19:39;;;;;;;4.32;1.80;;;;;;;;;;5513027;25;20308;-86
2024/04/08 13:22:12;;;;;;;2.90;2.17;;;;;;;;;;5491478;26;21048;-81
2024/04/08 13:24:39;;;;;;;3.47;1.77;;;;;;;;;;5491490;26;20238;-83
2024/04/08 13:27:07;;;;;;;4.30;1.85;;;;;;;;;;5459540;26;20309;-81
2024/04/08 13:29:35;;;;;;;4.93;1.80;;;;;;;;;;5506623;26;20259;-82
2024/04/08 13:32:03;;;;;;;4.63;1.77;;;;;;;;;;5491298;26;20576;-82
2024/04/08 13:34:30;;;;;;;2.45;1.77;;;;;;;;;;5485808;26;20280;-82
2024/04/08 13:37:00;;;;;;;4.60;1.75;;;;;;;;;;5472921;26;20765;-83
2024/04/08 13:39:28;;;;;;;5.75;1.80;;;;;;;;;;5506129;26;20725;-81
2024/04/08 13:41:56;;;;;;;2.35;1.60;;;;;;;;;;5459625;26;20237;-82
2024/04/08 13:44:24;;;;;;;1.88;1.70;;;;;;;;;;5499154;26;20739;-82
2024/04/08 13:46:52;;;;;;;2.95;1.50;;;;;;;;;;5466246;26;20240;-82
2024/04/08 13:49:20;;;;;;;2.85;1.85;;;;;;;;;;5465554;26;20228;-81
2024/04/08 13:51:53;;;;;;;2.53;1.60;;;;;;;;;;5498091;26;20240;-82
2024/04/08 13:54:28;;;;;;;2.92;1.52;;;;;;;;;;5466164;26;20272;-81
2024/04/08 13:56:56;;;;;;;2.88;1.65;;;;;;;;;;5459092;26;20229;-82
2024/04/08 13:59:23;;;;;;;2.65;1.70;;;;;;;;;;5461259;26;20721;-82
2024/04/08 14:01:51;;;;;;;2.08;1.60;;;;;;;;;;5458022;26;20307;-86
2024/04/08 14:04:20;;;;;;;3.85;1.48;;;;;;;;;;5465160;26;20237;-81
2024/04/08 14:06:48;;;;;;;4.60;1.70;;;;;;;;;;5464536;26;20375;-82
2024/04/08 14:09:15;;;;;;;3.42;1.55;;;;;;;;;;5459212;26;20662;-82
2024/04/08 14:11:43;;;;;;;1.60;1.50;;;;;;;;;;5469516;26;20293;-81
2024/04/08 14:14:12;;;;;;;2.53;1.60;;;;;;;;;;5458691;26;20280;-82
2024/04/08 14:16:40;;;;;;;3.63;1.60;;;;;;;;;;5436742;26;20257;-82
2024/04/08 14:19:07;;;;;;;3.97;1.70;;;;;;;;;;5419569;26;20626;-82
2024/04/08 14:21:35;;;;;;;2.60;1.63;;;;;;;;;;5420603;26;20232;-82
2024/04/08 14:24:03;;;;;;;2.08;1.70;;;;;;;;;;5430064;26;20615;-82
2024/04/08 14:26:31;;;;;;;2.20;1.48;;;;;;;;;;5421274;26;20633;-82
2024/04/08 14:28:58;;;;;;;5.05;1.80;;;;;;;;;;5406366;26;20348;-82
2024/04/08 14:31:26;;;;;;;2.92;1.88;;;;;;;;;;5413207;26;20248;-82
2024/04/08 14:33:54;;;;;;;3.38;1.50;;;;;;;;;;5408290;26;20285;-82
2024/04/08 14:36:23;;;;;;;2.45;1.70;;;;;;;;;;5422578;26;20227;-82
2024/04/08 14:38:52;;;;;;;4.32;1.88;;;;;;;;;;5418063;26;20235;-82
2024/04/08 14:41:40;;;;;;;2.22;1.60;;;;;;;;;;5407597;26;20738;-82